sensor_id;sensor_type;location;lat;lon;timestamp;pressure;altitude;pressure_sealevel;temperature;humidity
62333;BME280;48624;49.812;8.562;2023-05-12T04:20:53;100334.56;;;12.32;100.00
62333;BME280;48624;49.812;8.562;2023-05-12T04:23:18;100341.31;;;12.25;100.00
62333;BME280;48624;49.812;8.562;2023-05-12T04:25:44;100346.66;;;12.37;100.00
62333;BME280;48624;49.812;8.562;2023-05-12T04:28:10;100339.03;;;12.20;100.00
62333;BME280;48624;49.812;8.562;2023-05-12T04:30:38;100346.91;;;12.33;100.00
62333;BME280;48624;49.812;8.562;2023-05-12T04:33:04;100341.59;;;12.33;100.00
62333;BME280;48624;49.812;8.562;2023-05-12T04:35:29;100339.63;;;12.24;100.00
62333;BME280;48624;49.812;8.562;2023-05-12T04:37:54;100345.31;;;12.19;100.00
62333;BME280;48624;49.812;8.562;2023-05-12T04:40:20;100354.28;;;12.41;100.00
62333;BME280;48624;49.812;8.562;2023-05-12T04:42:45;100341.78;;;12.19;100.00
62333;BME280;48624;49.812;8.562;2023-05-12T06:09:17;100406.38;;;13.01;100.00
62333;BME280;48624;49.812;8.562;2023-05-12T06:11:43;100415.03;;;13.26;100.00
62333;BME280;48624;49.812;8.562;2023-05-12T06:14:08;100411.44;;;13.04;100.00
62333;BME280;48624;49.812;8.562;2023-05-12T06:16:33;100420.88;;;13.20;100.00
62333;BME280;48624;49.812;8.562;2023-05-12T06:18:59;100424.84;;;13.25;100.00
62333;BME280;48624;49.812;8.562;2023-05-12T06:21:24;100421.00;;;13.18;100.00
62333;BME280;48624;49.812;8.562;2023-05-12T06:23:51;100423.19;;;13.24;100.00
62333;BME280;48624;49.812;8.562;2023-05-12T06:26:16;100433.56;;;13.27;100.00
62333;BME280;48624;49.812;8.562;2023-05-12T06:28:41;100426.19;;;13.31;100.00
62333;BME280;48624;49.812;8.562;2023-05-12T06:31:08;100437.19;;;13.26;100.00
62333;BME280;48624;49.812;8.562;2023-05-12T06:33:34;100432.63;;;13.06;100.00
62333;BME280;48624;49.812;8.562;2023-05-12T06:35:59;100432.97;;;13.12;100.00
62333;BME280;48624;49.812;8.562;2023-05-12T06:38:25;100438.03;;;13.27;100.00
62333;BME280;48624;49.812;8.562;2023-05-12T06:40:50;100437.44;;;13.35;100.00
62333;BME280;48624;49.812;8.562;2023-05-12T06:43:19;100443.47;;;13.37;100.00
62333;BME280;48624;49.812;8.562;2023-05-12T06:45:45;100444.78;;;13.42;100.00
62333;BME280;48624;49.812;8.562;2023-05-12T06:48:10;100445.06;;;13.28;100.00
62333;BME280;48624;49.812;8.562;2023-05-12T06:50:36;100452.19;;;13.50;100.00
62333;BME280;48624;49.812;8.562;2023-05-12T06:53:01;100447.09;;;13.36;100.00
62333;BME280;48624;49.812;8.562;2023-05-12T06:55:26;100450.69;;;13.69;100.00
62333;BME280;48624;49.812;8.562;2023-05-12T06:57:52;100447.44;;;13.42;100.00
62333;BME280;48624;49.812;8.562;2023-05-12T07:00:23;100445.75;;;13.41;100.00
62333;BME280;48624;49.812;8.562;2023-05-12T07:02:49;100452.91;;;13.52;100.00
62333;BME280;48624;49.812;8.562;2023-05-12T07:05:15;100453.97;;;13.61;100.00
62333;BME280;48624;49.812;8.562;2023-05-12T07:07:40;100455.06;;;13.58;100.00
62333;BME280;48624;49.812;8.562;2023-05-12T07:10:07;100457.72;;;13.58;100.00
62333;BME280;48624;49.812;8.562;2023-05-12T07:12:33;100461.22;;;13.70;100.00
62333;BME280;48624;49.812;8.562;2023-05-12T07:14:59;100458.06;;;13.65;100.00
62333;BME280;48624;49.812;8.562;2023-05-12T07:17:24;100452.53;;;13.68;100.00
62333;BME280;48624;49.812;8.562;2023-05-12T07:19:50;100457.53;;;13.94;100.00
62333;BME280;48624;49.812;8.562;2023-05-12T07:22:15;100451.97;;;13.97;100.00
62333;BME280;48624;49.812;8.562;2023-05-12T07:24:41;100458.53;;;14.14;100.00
62333;BME280;48624;49.812;8.562;2023-05-12T07:27:06;100456.78;;;14.25;100.00
62333;BME280;48624;49.812;8.562;2023-05-12T07:29:32;100464.56;;;14.17;100.00
62333;BME280;48624;49.812;8.562;2023-05-12T07:31:58;100456.63;;;14.38;100.00
62333;BME280;48624;49.812;8.562;2023-05-12T07:34:23;100461.47;;;14.11;100.00
62333;BME280;48624;49.812;8.562;2023-05-12T07:36:48;100454.50;;;14.20;100.00
62333;BME280;48624;49.812;8.562;2023-05-12T07:39:14;100458.06;;;14.42;100.00
62333;BME280;48624;49.812;8.562;2023-05-12T07:41:44;100454.63;;;14.51;100.00
62333;BME280;48624;49.812;8.562;2023-05-12T07:44:09;100452.97;;;14.39;98.83
62333;BME280;48624;49.812;8.562;2023-05-12T07:46:34;100457.75;;;14.78;98.63
62333;BME280;48624;49.812;8.562;2023-05-12T07:49:00;100470.44;;;14.10;98.00
62333;BME280;48624;49.812;8.562;2023-05-12T07:51:27;100471.03;;;14.14;100.00
62333;BME280;48624;49.812;8.562;2023-05-12T07:53:53;100463.31;;;14.32;99.33
62333;BME280;48624;49.812;8.562;2023-05-12T07:56:19;100466.59;;;14.57;97.15
62333;BME280;48624;49.812;8.562;2023-05-12T07:58:45;100469.53;;;14.21;96.47
62333;BME280;48624;49.812;8.562;2023-05-12T08:01:11;100464.03;;;14.34;100.00
62333;BME280;48624;49.812;8.562;2023-05-12T08:03:37;100468.09;;;14.17;100.00
62333;BME280;48624;49.812;8.562;2023-05-12T08:06:03;100472.28;;;13.98;100.00
62333;BME280;48624;49.812;8.562;2023-05-12T08:08:31;100458.16;;;14.19;100.00
62333;BME280;48624;49.812;8.562;2023-05-12T08:10:57;100475.94;;;14.30;100.00
62333;BME280;48624;49.812;8.562;2023-05-12T08:13:22;100466.09;;;14.31;100.00
62333;BME280;48624;49.812;8.562;2023-05-12T08:15:48;100467.72;;;14.22;98.20
62333;BME280;48624;49.812;8.562;2023-05-12T08:18:14;100456.44;;;14.51;95.65
62333;BME280;48624;49.812;8.562;2023-05-12T08:20:40;100466.06;;;14.42;97.22
62333;BME280;48624;49.812;8.562;2023-05-12T08:23:08;100463.72;;;14.49;98.18
62333;BME280;48624;49.812;8.562;2023-05-12T08:25:35;100466.69;;;14.34;100.00
62333;BME280;48624;49.812;8.562;2023-05-12T08:28:01;100467.88;;;14.84;96.46
62333;BME280;48624;49.812;8.562;2023-05-12T08:30:30;100464.16;;;14.54;99.18
62333;BME280;48624;49.812;8.562;2023-05-12T08:32:57;100466.75;;;14.65;96.01
62333;BME280;48624;49.812;8.562;2023-05-12T08:35:23;100473.13;;;14.53;94.34
62333;BME280;48624;49.812;8.562;2023-05-12T08:37:52;100469.88;;;14.49;95.29
62333;BME280;48624;49.812;8.562;2023-05-12T08:40:21;100473.00;;;14.54;96.22
62333;BME280;48624;49.812;8.562;2023-05-12T08:43:08;100476.78;;;14.52;94.90
62333;BME280;48624;49.812;8.562;2023-05-12T08:45:39;100473.84;;;14.55;95.52
62333;BME280;48624;49.812;8.562;2023-05-12T08:48:08;100467.94;;;14.94;95.37
62333;BME280;48624;49.812;8.562;2023-05-12T08:50:35;100467.72;;;14.76;95.75
62333;BME280;48624;49.812;8.562;2023-05-12T08:53:03;100470.88;;;15.22;93.16
62333;BME280;48624;49.812;8.562;2023-05-12T08:55:30;100469.94;;;15.02;97.01
62333;BME280;48624;49.812;8.562;2023-05-12T08:57:58;100470.53;;;15.05;93.14
62333;BME280;48624;49.812;8.562;2023-05-12T09:00:28;100469.41;;;15.08;92.81
62333;BME280;48624;49.812;8.562;2023-05-12T09:02:59;100461.00;;;15.12;90.99
62333;BME280;48624;49.812;8.562;2023-05-12T09:05:27;100468.72;;;15.47;91.72
62333;BME280;48624;49.812;8.562;2023-05-12T09:07:53;100468.97;;;15.34;90.91
62333;BME280;48624;49.812;8.562;2023-05-12T09:10:31;100463.41;;;15.47;90.61
62333;BME280;48624;49.812;8.562;2023-05-12T09:13:03;100472.91;;;15.39;90.37
62333;BME280;48624;49.812;8.562;2023-05-12T09:15:34;100472.59;;;15.84;91.93
62333;BME280;48624;49.812;8.562;2023-05-12T09:18:03;100465.47;;;15.94;88.00
62333;BME280;48624;49.812;8.562;2023-05-12T09:20:29;100465.91;;;16.29;86.50
62333;BME280;48624;49.812;8.562;2023-05-12T09:22:56;100463.38;;;16.17;84.31
62333;BME280;48624;49.812;8.562;2023-05-12T09:25:22;100469.00;;;15.94;82.29
62333;BME280;48624;49.812;8.562;2023-05-12T09:27:52;100458.72;;;16.00;82.78
62333;BME280;48624;49.812;8.562;2023-05-12T09:30:28;100466.03;;;16.07;83.28
62333;BME280;48624;49.812;8.562;2023-05-12T09:33:04;100466.72;;;15.90;83.07
62333;BME280;48624;49.812;8.562;2023-05-12T09:35:40;100462.38;;;15.99;80.42
62333;BME280;48624;49.812;8.562;2023-05-12T09:38:10;100465.19;;;16.07;82.98
62333;BME280;48624;49.812;8.562;2023-05-12T09:40:36;100462.81;;;16.14;84.87
62333;BME280;48624;49.812;8.562;2023-05-12T09:43:05;100457.75;;;16.20;81.31
62333;BME280;48624;49.812;8.562;2023-05-12T09:45:35;100464.63;;;16.03;80.98
62333;BME280;48624;49.812;8.562;2023-05-12T09:48:08;100466.59;;;16.11;85.01
62333;BME280;48624;49.812;8.562;2023-05-12T09:50:46;100459.66;;;16.58;80.89
62333;BME280;48624;49.812;8.562;2023-05-12T09:53:11;100460.94;;;16.63;79.72
62333;BME280;48624;49.812;8.562;2023-05-12T09:55:41;100465.75;;;16.60;79.66
62333;BME280;48624;49.812;8.562;2023-05-12T09:58:09;100474.34;;;16.54;80.55
62333;BME280;48624;49.812;8.562;2023-05-12T10:00:36;100465.72;;;16.70;79.12
62333;BME280;48624;49.812;8.562;2023-05-12T10:03:12;100469.28;;;16.50;78.87
62333;BME280;48624;49.812;8.562;2023-05-12T10:05:47;100478.56;;;16.46;79.59
62333;BME280;48624;49.812;8.562;2023-05-12T10:08:19;100476.31;;;16.42;79.59
62333;BME280;48624;49.812;8.562;2023-05-12T10:10:47;100474.63;;;16.31;77.13
62333;BME280;48624;49.812;8.562;2023-05-12T10:13:14;100470.13;;;16.31;79.85
62333;BME280;48624;49.812;8.562;2023-05-12T10:15:41;100469.81;;;16.54;79.06
62333;BME280;48624;49.812;8.562;2023-05-12T10:18:08;100467.00;;;16.56;79.93
62333;BME280;48624;49.812;8.562;2023-05-12T10:20:35;100463.66;;;16.24;80.55
62333;BME280;48624;49.812;8.562;2023-05-12T10:23:02;100463.91;;;16.60;80.18
62333;BME280;48624;49.812;8.562;2023-05-12T10:25:30;100461.25;;;16.50;80.02
62333;BME280;48624;49.812;8.562;2023-05-12T10:27:57;100457.41;;;16.63;78.97
62333;BME280;48624;49.812;8.562;2023-05-12T10:30:23;100453.56;;;16.85;77.30
62333;BME280;48624;49.812;8.562;2023-05-12T10:32:48;100449.47;;;16.81;78.41
62333;BME280;48624;49.812;8.562;2023-05-12T10:35:16;100454.06;;;16.51;80.62
62333;BME280;48624;49.812;8.562;2023-05-12T10:37:41;100457.25;;;16.64;78.88
62333;BME280;48624;49.812;8.562;2023-05-12T10:40:22;100450.34;;;16.72;77.75
62333;BME280;48624;49.812;8.562;2023-05-12T10:42:49;100459.41;;;16.61;79.50
62333;BME280;48624;49.812;8.562;2023-05-12T10:45:20;100458.53;;;16.60;78.52
62333;BME280;48624;49.812;8.562;2023-05-12T10:47:49;100453.31;;;16.69;75.84
62333;BME280;48624;49.812;8.562;2023-05-12T10:50:25;100464.47;;;16.64;76.90
62333;BME280;48624;49.812;8.562;2023-05-12T10:52:55;100457.13;;;16.66;74.95
62333;BME280;48624;49.812;8.562;2023-05-12T10:55:33;100456.25;;;16.85;75.63
62333;BME280;48624;49.812;8.562;2023-05-12T10:58:24;100453.88;;;16.72;75.23
62333;BME280;48624;49.812;8.562;2023-05-12T11:00:50;100459.94;;;16.64;75.69
62333;BME280;48624;49.812;8.562;2023-05-12T11:03:17;100453.41;;;16.87;77.19
62333;BME280;48624;49.812;8.562;2023-05-12T11:05:57;100467.75;;;16.96;77.60
62333;BME280;48624;49.812;8.562;2023-05-12T11:08:24;100463.84;;;16.90;78.04
62333;BME280;48624;49.812;8.562;2023-05-12T11:10:51;100461.72;;;16.84;75.09
62333;BME280;48624;49.812;8.562;2023-05-12T11:13:20;100460.41;;;16.50;76.40
62333;BME280;48624;49.812;8.562;2023-05-12T11:15:47;100469.84;;;16.25;78.19
62333;BME280;48624;49.812;8.562;2023-05-12T11:18:25;100472.94;;;16.30;76.18
62333;BME280;48624;49.812;8.562;2023-05-12T11:20:56;100467.88;;;16.36;76.33
62333;BME280;48624;49.812;8.562;2023-05-12T11:23:23;100471.94;;;16.11;77.13
62333;BME280;48624;49.812;8.562;2023-05-12T11:25:52;100482.06;;;16.07;77.34
62333;BME280;48624;49.812;8.562;2023-05-12T11:28:20;100481.38;;;15.95;78.54
62333;BME280;48624;49.812;8.562;2023-05-12T11:30:52;100474.59;;;15.91;77.83
62333;BME280;48624;49.812;8.562;2023-05-12T11:33:22;100476.97;;;15.85;79.11
62333;BME280;48624;49.812;8.562;2023-05-12T11:35:49;100478.63;;;15.86;79.77
62333;BME280;48624;49.812;8.562;2023-05-12T11:38:17;100479.94;;;15.91;80.22
62333;BME280;48624;49.812;8.562;2023-05-12T11:40:44;100482.53;;;15.62;81.34
62333;BME280;48624;49.812;8.562;2023-05-12T11:43:11;100476.78;;;15.76;80.79
62333;BME280;48624;49.812;8.562;2023-05-12T11:45:36;100477.28;;;15.40;81.48
62333;BME280;48624;49.812;8.562;2023-05-12T11:48:10;100480.53;;;15.44;81.96
62333;BME280;48624;49.812;8.562;2023-05-12T11:50:42;100486.72;;;15.54;80.15
62333;BME280;48624;49.812;8.562;2023-05-12T11:53:18;100482.25;;;15.65;79.59
62333;BME280;48624;49.812;8.562;2023-05-12T11:55:53;100483.50;;;15.51;80.35
62333;BME280;48624;49.812;8.562;2023-05-12T11:58:26;100485.50;;;15.68;79.99
62333;BME280;48624;49.812;8.562;2023-05-12T12:00:54;100489.28;;;15.56;81.20
62333;BME280;48624;49.812;8.562;2023-05-12T12:03:22;100484.34;;;15.51;82.11
62333;BME280;48624;49.812;8.562;2023-05-12T12:06:05;100490.09;;;15.57;81.04
62333;BME280;48624;49.812;8.562;2023-05-12T12:08:35;100496.31;;;15.57;82.72
62333;BME280;48624;49.812;8.562;2023-05-12T12:11:13;100499.13;;;15.65;81.00
62333;BME280;48624;49.812;8.562;2023-05-12T12:13:46;100499.84;;;15.77;80.57
62333;BME280;48624;49.812;8.562;2023-05-12T12:16:14;100501.41;;;15.80;81.58
62333;BME280;48624;49.812;8.562;2023-05-12T12:18:39;100499.63;;;15.90;80.75
62333;BME280;48624;49.812;8.562;2023-05-12T12:21:05;100503.16;;;16.01;80.48
62333;BME280;48624;49.812;8.562;2023-05-12T12:23:32;100508.34;;;15.92;80.96
62333;BME280;48624;49.812;8.562;2023-05-12T12:25:57;100501.50;;;16.09;79.73
62333;BME280;48624;49.812;8.562;2023-05-12T12:28:31;100504.00;;;15.91;80.06
62333;BME280;48624;49.812;8.562;2023-05-12T12:30:58;100508.97;;;16.26;78.20
62333;BME280;48624;49.812;8.562;2023-05-12T12:33:24;100507.56;;;16.31;79.62
62333;BME280;48624;49.812;8.562;2023-05-12T12:35:49;100504.44;;;16.36;79.52
62333;BME280;48624;49.812;8.562;2023-05-12T12:38:16;100504.03;;;16.21;81.64
62333;BME280;48624;49.812;8.562;2023-05-12T12:40:41;100501.78;;;16.16;83.05
62333;BME280;48624;49.812;8.562;2023-05-12T12:43:07;100505.28;;;16.27;83.42
62333;BME280;48624;49.812;8.562;2023-05-12T12:45:34;100505.72;;;16.42;82.41
62333;BME280;48624;49.812;8.562;2023-05-12T12:48:02;100507.00;;;16.38;83.15
62333;BME280;48624;49.812;8.562;2023-05-12T12:50:30;100508.81;;;16.47;81.63
62333;BME280;48624;49.812;8.562;2023-05-12T12:52:56;100512.31;;;16.47;81.96
62333;BME280;48624;49.812;8.562;2023-05-12T12:55:21;100515.28;;;16.54;82.39
62333;BME280;48624;49.812;8.562;2023-05-12T12:57:48;100515.72;;;16.40;82.13
62333;BME280;48624;49.812;8.562;2023-05-12T13:00:13;100516.97;;;16.45;81.24
62333;BME280;48624;49.812;8.562;2023-05-12T13:02:39;100523.28;;;16.54;82.44
62333;BME280;48624;49.812;8.562;2023-05-12T13:05:05;100520.38;;;16.38;81.29
62333;BME280;48624;49.812;8.562;2023-05-12T13:07:31;100528.47;;;16.06;80.25
62333;BME280;48624;49.812;8.562;2023-05-12T13:09:57;100525.41;;;16.31;77.83
62333;BME280;48624;49.812;8.562;2023-05-12T13:12:22;100522.88;;;16.19;78.58
62333;BME280;48624;49.812;8.562;2023-05-12T13:14:49;100526.94;;;16.04;79.25
62333;BME280;48624;49.812;8.562;2023-05-12T13:17:14;100525.38;;;16.11;78.63
62333;BME280;48624;49.812;8.562;2023-05-12T13:19:39;100522.31;;;16.06;78.39
62333;BME280;48624;49.812;8.562;2023-05-12T13:22:05;100531.16;;;15.97;79.95
62333;BME280;48624;49.812;8.562;2023-05-12T13:24:30;100527.38;;;15.99;79.76
62333;BME280;48624;49.812;8.562;2023-05-12T13:26:55;100523.72;;;16.10;79.44
62333;BME280;48624;49.812;8.562;2023-05-12T13:29:21;100519.22;;;16.11;79.06
62333;BME280;48624;49.812;8.562;2023-05-12T13:31:49;100524.00;;;16.17;79.34
62333;BME280;48624;49.812;8.562;2023-05-12T13:34:14;100512.44;;;15.97;76.45
62333;BME280;48624;49.812;8.562;2023-05-12T13:36:39;100524.13;;;16.05;78.40
62333;BME280;48624;49.812;8.562;2023-05-12T13:39:06;100516.22;;;15.94;80.03
62333;BME280;48624;49.812;8.562;2023-05-12T13:41:34;100524.84;;;16.17;78.29
62333;BME280;48624;49.812;8.562;2023-05-12T13:43:59;100530.44;;;16.04;77.33
62333;BME280;48624;49.812;8.562;2023-05-12T13:46:24;100524.97;;;16.06;78.03
62333;BME280;48624;49.812;8.562;2023-05-12T13:48:50;100525.69;;;16.28;78.24
62333;BME280;48624;49.812;8.562;2023-05-12T13:51:16;100527.66;;;16.35;78.59
62333;BME280;48624;49.812;8.562;2023-05-12T13:53:42;100525.44;;;16.50;78.63
62333;BME280;48624;49.812;8.562;2023-05-12T13:56:07;100526.66;;;16.66;78.11
62333;BME280;48624;49.812;8.562;2023-05-12T13:58:32;100527.53;;;16.67;78.13
62333;BME280;48624;49.812;8.562;2023-05-12T14:01:01;100519.28;;;16.98;76.89
62333;BME280;48624;49.812;8.562;2023-05-12T14:03:27;100522.69;;;17.10;76.19
62333;BME280;48624;49.812;8.562;2023-05-12T14:05:52;100525.31;;;17.19;75.69
62333;BME280;48624;49.812;8.562;2023-05-12T14:08:17;100522.13;;;17.44;75.79
62333;BME280;48624;49.812;8.562;2023-05-12T14:10:43;100521.38;;;17.24;73.05
62333;BME280;48624;49.812;8.562;2023-05-12T14:13:09;100522.53;;;17.49;73.68
62333;BME280;48624;49.812;8.562;2023-05-12T14:15:34;100526.69;;;17.61;72.91
62333;BME280;48624;49.812;8.562;2023-05-12T14:18:00;100526.78;;;17.42;72.98
62333;BME280;48624;49.812;8.562;2023-05-12T14:20:25;100521.19;;;17.63;73.14
62333;BME280;48624;49.812;8.562;2023-05-12T14:22:50;100514.88;;;17.82;74.27
62333;BME280;48624;49.812;8.562;2023-05-12T14:25:16;100519.28;;;17.83;73.38
62333;BME280;48624;49.812;8.562;2023-05-12T14:27:42;100499.78;;;17.63;72.85
62333;BME280;48624;49.812;8.562;2023-05-12T14:30:09;100511.81;;;18.05;73.68
62333;BME280;48624;49.812;8.562;2023-05-12T14:32:35;100512.28;;;17.72;75.65
62333;BME280;48624;49.812;8.562;2023-05-12T14:35:00;100518.19;;;17.76;74.29
62333;BME280;48624;49.812;8.562;2023-05-12T14:37:25;100523.28;;;17.69;73.82
62333;BME280;48624;49.812;8.562;2023-05-12T14:39:50;100521.84;;;17.75;71.67
62333;BME280;48624;49.812;8.562;2023-05-12T14:42:16;100523.09;;;17.99;70.20
62333;BME280;48624;49.812;8.562;2023-05-12T14:44:44;100524.31;;;17.86;72.75
62333;BME280;48624;49.812;8.562;2023-05-12T14:47:09;100525.53;;;17.92;70.09
62333;BME280;48624;49.812;8.562;2023-05-12T14:49:34;100530.06;;;17.92;69.74
62333;BME280;48624;49.812;8.562;2023-05-12T14:51:59;100538.94;;;18.20;69.21
62333;BME280;48624;49.812;8.562;2023-05-12T14:54:25;100534.25;;;18.04;68.83
62333;BME280;48624;49.812;8.562;2023-05-12T14:56:50;100530.28;;;17.80;69.06
62333;BME280;48624;49.812;8.562;2023-05-12T14:59:16;100531.84;;;17.73;70.32
62333;BME280;48624;49.812;8.562;2023-05-12T15:01:41;100525.91;;;18.07;69.24
62333;BME280;48624;49.812;8.562;2023-05-12T15:04:07;100527.59;;;18.08;68.89
62333;BME280;48624;49.812;8.562;2023-05-12T15:06:32;100532.13;;;18.08;68.53
62333;BME280;48624;49.812;8.562;2023-05-12T15:08:57;100529.00;;;18.12;69.77
62333;BME280;48624;49.812;8.562;2023-05-12T15:11:23;100531.44;;;18.42;67.49
62333;BME280;48624;49.812;8.562;2023-05-12T15:13:48;100533.03;;;18.35;67.53
62333;BME280;48624;49.812;8.562;2023-05-12T15:16:13;100540.09;;;18.54;68.18
62333;BME280;48624;49.812;8.562;2023-05-12T15:18:39;100540.09;;;18.36;68.42
62333;BME280;48624;49.812;8.562;2023-05-12T15:21:04;100537.47;;;18.26;68.00
62333;BME280;48624;49.812;8.562;2023-05-12T15:23:29;100550.97;;;18.34;68.03
62333;BME280;48624;49.812;8.562;2023-05-12T15:25:55;100540.44;;;18.05;66.87
62333;BME280;48624;49.812;8.562;2023-05-12T15:28:20;100544.34;;;17.82;63.97
62333;BME280;48624;49.812;8.562;2023-05-12T15:30:55;100540.09;;;17.89;66.17
62333;BME280;48624;49.812;8.562;2023-05-12T15:33:21;100531.50;;;17.86;66.41
62333;BME280;48624;49.812;8.562;2023-05-12T15:35:46;100540.25;;;17.88;67.11
62333;BME280;48624;49.812;8.562;2023-05-12T15:38:11;100539.25;;;18.17;66.93
62333;BME280;48624;49.812;8.562;2023-05-12T15:40:39;100545.75;;;18.33;66.97
62333;BME280;48624;49.812;8.562;2023-05-12T15:43:04;100541.72;;;18.28;66.59
62333;BME280;48624;49.812;8.562;2023-05-12T15:45:29;100543.84;;;18.61;64.49
62333;BME280;48624;49.812;8.562;2023-05-12T15:47:55;100544.00;;;18.86;64.33
62333;BME280;48624;49.812;8.562;2023-05-12T15:50:21;100541.72;;;18.91;62.89
62333;BME280;48624;49.812;8.562;2023-05-12T15:52:46;100547.50;;;18.78;63.35
62333;BME280;48624;49.812;8.562;2023-05-12T15:55:12;100543.53;;;18.91;62.77
62333;BME280;48624;49.812;8.562;2023-05-12T15:57:37;100540.69;;;19.37;61.20
62333;BME280;48624;49.812;8.562;2023-05-12T16:00:03;100539.00;;;19.36;62.87
62333;BME280;48624;49.812;8.562;2023-05-12T16:02:29;100545.56;;;19.07;62.95
62333;BME280;48624;49.812;8.562;2023-05-12T16:04:55;100535.75;;;19.24;61.32
62333;BME280;48624;49.812;8.562;2023-05-12T16:07:20;100541.16;;;19.06;63.33
62333;BME280;48624;49.812;8.562;2023-05-12T16:09:46;100540.25;;;18.97;59.96
62333;BME280;48624;49.812;8.562;2023-05-12T16:12:11;100544.88;;;18.68;60.09
62333;BME280;48624;49.812;8.562;2023-05-12T16:14:37;100540.78;;;18.38;61.63
62333;BME280;48624;49.812;8.562;2023-05-12T16:17:02;100549.66;;;18.38;61.17
62333;BME280;48624;49.812;8.562;2023-05-12T16:19:28;100542.31;;;18.40;60.37
62333;BME280;48624;49.812;8.562;2023-05-12T16:21:53;100537.50;;;17.98;62.41
62333;BME280;48624;49.812;8.562;2023-05-12T16:24:21;100536.19;;;18.02;63.09
62333;BME280;48624;49.812;8.562;2023-05-12T16:26:46;100537.19;;;18.01;62.33
62333;BME280;48624;49.812;8.562;2023-05-12T16:29:12;100535.38;;;17.73;62.20
62333;BME280;48624;49.812;8.562;2023-05-12T16:31:37;100537.31;;;17.81;62.38
62333;BME280;48624;49.812;8.562;2023-05-12T16:34:03;100536.81;;;17.96;63.43
62333;BME280;48624;49.812;8.562;2023-05-12T16:36:28;100538.66;;;17.67;65.63
62333;BME280;48624;49.812;8.562;2023-05-12T16:38:54;100536.41;;;17.91;64.20
62333;BME280;48624;49.812;8.562;2023-05-12T16:41:20;100547.00;;;17.92;63.47
62333;BME280;48624;49.812;8.562;2023-05-12T16:43:45;100542.78;;;17.61;64.31
62333;BME280;48624;49.812;8.562;2023-05-12T16:46:11;100549.44;;;17.57;65.94
62333;BME280;48624;49.812;8.562;2023-05-12T16:48:37;100545.56;;;17.70;64.38
62333;BME280;48624;49.812;8.562;2023-05-12T16:53:29;100557.28;;;17.59;64.77
62333;BME280;48624;49.812;8.562;2023-05-12T16:55:55;100558.53;;;17.37;65.98
62333;BME280;48624;49.812;8.562;2023-05-12T16:58:21;100563.28;;;17.43;66.91
62333;BME280;48624;49.812;8.562;2023-05-12T17:00:46;100558.25;;;17.30;65.57
62333;BME280;48624;49.812;8.562;2023-05-12T17:03:11;100566.53;;;17.46;64.80
62333;BME280;48624;49.812;8.562;2023-05-12T17:05:37;100567.09;;;17.40;63.93
62333;BME280;48624;49.812;8.562;2023-05-12T17:08:03;100571.81;;;17.28;64.62
62333;BME280;48624;49.812;8.562;2023-05-12T17:10:28;100574.31;;;17.30;63.06
62333;BME280;48624;49.812;8.562;2023-05-12T17:12:54;100579.75;;;16.71;67.53
62333;BME280;48624;49.812;8.562;2023-05-12T17:15:19;100575.91;;;16.83;64.43
62333;BME280;48624;49.812;8.562;2023-05-12T17:17:44;100583.25;;;16.81;64.98
62333;BME280;48624;49.812;8.562;2023-05-12T17:20:10;100589.00;;;16.96;64.43
62333;BME280;48624;49.812;8.562;2023-05-12T17:22:35;100590.31;;;16.72;65.62
62333;BME280;48624;49.812;8.562;2023-05-12T17:25:06;100587.63;;;16.72;67.25
62333;BME280;48624;49.812;8.562;2023-05-12T17:27:34;100592.81;;;16.74;65.25
62333;BME280;48624;49.812;8.562;2023-05-12T17:30:00;100587.91;;;16.79;65.63
62333;BME280;48624;49.812;8.562;2023-05-12T17:32:28;100597.91;;;16.67;65.32
62333;BME280;48624;49.812;8.562;2023-05-12T17:34:53;100586.94;;;16.70;66.62
62333;BME280;48624;49.812;8.562;2023-05-12T17:37:18;100589.31;;;16.63;65.22
62333;BME280;48624;49.812;8.562;2023-05-12T17:39:43;100596.34;;;16.64;65.72
62333;BME280;48624;49.812;8.562;2023-05-12T17:42:10;100589.31;;;16.54;64.85
62333;BME280;48624;49.812;8.562;2023-05-12T17:44:35;100587.22;;;16.57;64.31
62333;BME280;48624;49.812;8.562;2023-05-12T17:47:00;100591.13;;;16.73;64.90
62333;BME280;48624;49.812;8.562;2023-05-12T17:49:26;100591.00;;;16.55;65.57
62333;BME280;48624;49.812;8.562;2023-05-12T17:51:54;100594.25;;;16.39;64.78
62333;BME280;48624;49.812;8.562;2023-05-12T17:54:19;100590.28;;;16.33;65.80
62333;BME280;48624;49.812;8.562;2023-05-12T17:56:45;100590.44;;;16.41;65.54
62333;BME280;48624;49.812;8.562;2023-05-12T17:59:11;100585.78;;;16.33;66.02
62333;BME280;48624;49.812;8.562;2023-05-12T18:01:37;100589.72;;;16.39;66.16
62333;BME280;48624;49.812;8.562;2023-05-12T18:04:02;100595.38;;;16.56;67.59
62333;BME280;48624;49.812;8.562;2023-05-12T18:06:27;100594.13;;;16.60;66.82
62333;BME280;48624;49.812;8.562;2023-05-12T18:08:53;100591.88;;;16.55;66.63
62333;BME280;48624;49.812;8.562;2023-05-12T18:11:18;100594.81;;;16.62;65.53
62333;BME280;48624;49.812;8.562;2023-05-12T18:13:44;100592.81;;;16.54;66.51
62333;BME280;48624;49.812;8.562;2023-05-12T18:16:09;100602.81;;;16.52;67.55
62333;BME280;48624;49.812;8.562;2023-05-12T18:18:35;100606.91;;;16.46;68.13
62333;BME280;48624;49.812;8.562;2023-05-12T18:21:02;100611.72;;;16.53;67.35
62333;BME280;48624;49.812;8.562;2023-05-12T18:23:27;100602.25;;;16.68;66.58
62333;BME280;48624;49.812;8.562;2023-05-12T18:25:53;100612.94;;;16.48;67.51
62333;BME280;48624;49.812;8.562;2023-05-12T18:28:18;100611.28;;;16.38;68.01
62333;BME280;48624;49.812;8.562;2023-05-12T18:30:43;100612.66;;;16.42;68.93
62333;BME280;48624;49.812;8.562;2023-05-12T18:33:09;100606.34;;;16.33;68.61